Time;durP1;ratioP1;P1;durP2;ratioP2;P2;SDS_P1;SDS_P2;PMS_P1;PMS_P2;Temp;Humidity;BMP_temperature;BMP_pressure;BME280_temperature;BME280_humidity;BME280_pressure;Samples;Min_cycle;Max_cycle;Signal;HPM_P1;HPM_P2
2023/01/05 00:00:31;;;;;;;11.40;5.50;;;;;;;;;;108106;1264;40502;-36
2023/01/05 00:03:22;;;;;;;10.50;5.40;;;;;;;;;;108078;1257;43463;-35
2023/01/05 00:05:59;;;;;;;10.40;5.60;;;;;;;;;;108128;1257;42547;-35
2023/01/05 00:08:34;;;;;;;12.30;5.50;;;;;;;;;;108121;1261;40192;-35
2023/01/05 00:22:45;;;;;;;8.80;4.80;;;;;;;;;;108108;1269;40738;-36
2023/01/05 00:25:21;;;;;;;7.90;5.00;;;;;;;;;;107984;1263;175762;-36
2023/01/05 00:27:52;;;;;;;10.70;4.80;;;;;;;;;;108118;1260;42367;-36
2023/01/05 00:30:25;;;;;;;9.50;4.90;;;;;;;;;;108110;1264;39100;-36
2023/01/05 00:32:58;;;;;;;8.90;4.50;;;;;;;;;;108182;1257;40487;-35
2023/01/05 00:35:30;;;;;;;8.50;4.50;;;;;;;;;;108096;1259;43387;-35
2023/01/05 00:38:03;;;;;;;8.40;4.60;;;;;;;;;;108120;1262;42135;-37
2023/01/05 00:40:33;;;;;;;8.20;4.50;;;;;;;;;;108138;1262;38984;-35
2023/01/05 00:43:06;;;;;;;9.30;4.50;;;;;;;;;;108156;1259;41404;-35
2023/01/05 00:45:38;;;;;;;9.70;4.20;;;;;;;;;;108089;1262;43632;-35
2023/01/05 00:48:11;;;;;;;6.80;4.00;;;;;;;;;;108108;1267;42257;-36
2023/01/05 00:50:46;;;;;;;7.80;4.30;;;;;;;;;;108101;1259;38925;-36
2023/01/05 00:53:16;;;;;;;8.40;4.30;;;;;;;;;;108086;1262;40361;-36
2023/01/05 00:55:56;;;;;;;7.90;4.10;;;;;;;;;;108092;1258;43087;-35
2023/01/05 00:58:25;;;;;;;6.90;3.60;;;;;;;;;;108121;1273;42507;-36
2023/01/05 01:00:59;;;;;;;7.90;4.30;;;;;;;;;;108115;1261;39034;-35
2023/01/05 01:03:30;;;;;;;7.00;3.90;;;;;;;;;;107457;1273;894438;-35
2023/01/05 01:06:00;;;;;;;7.40;3.80;;;;;;;;;;108098;1262;43536;-35
2023/01/05 01:08:32;;;;;;;6.80;3.70;;;;;;;;;;108120;1262;42317;-35
2023/01/05 01:11:09;;;;;;;6.80;3.90;;;;;;;;;;108128;1263;37695;-36
2023/01/05 01:13:39;;;;;;;7.00;3.70;;;;;;;;;;108130;1258;40478;-36
2023/01/05 01:16:12;;;;;;;7.10;3.60;;;;;;;;;;108087;1258;43283;-36
2023/01/05 01:18:43;;;;;;;7.40;3.70;;;;;;;;;;108177;1263;43619;-35
2023/01/05 01:21:13;;;;;;;7.10;3.60;;;;;;;;;;108133;1264;40563;-36
2023/01/05 01:23:45;;;;;;;6.20;3.20;;;;;;;;;;108113;1263;41344;-36
2023/01/05 01:26:17;;;;;;;7.60;3.60;;;;;;;;;;108068;1261;43480;-36
2023/01/05 01:28:49;;;;;;;7.10;3.20;;;;;;;;;;108076;1270;42438;-35
2023/01/05 01:31:21;;;;;;;6.30;3.20;;;;;;;;;;108153;1263;40256;-36
2023/01/05 01:33:52;;;;;;;6.70;3.10;;;;;;;;;;108111;1262;40304;-35
2023/01/05 01:36:22;;;;;;;6.90;3.40;;;;;;;;;;108099;1262;43531;-35
2023/01/05 01:38:58;;;;;;;6.50;3.10;;;;;;;;;;108095;1263;42506;-36
2023/01/05 01:41:28;;;;;;;7.80;3.10;;;;;;;;;;108139;1271;39217;-36
2023/01/05 01:43:58;;;;;;;6.20;3.00;;;;;;;;;;108125;1262;40190;-36
2023/01/05 01:46:29;;;;;;;6.90;3.20;;;;;;;;;;108113;1263;43591;-36
2023/01/05 01:49:10;;;;;;;6.00;2.90;;;;;;;;;;108120;1273;42267;-36
2023/01/05 01:51:48;;;;;;;5.90;2.40;;;;;;;;;;108097;1257;38954;-37
2023/01/05 01:54:20;;;;;;;5.30;2.80;;;;;;;;;;108095;1269;40330;-36
2023/01/05 01:56:53;;;;;;;5.40;2.40;;;;;;;;;;108085;1262;43316;-36
2023/01/05 01:59:27;;;;;;;5.40;2.70;;;;;;;;;;108127;1268;42547;-36
2023/01/05 02:02:03;;;;;;;5.90;2.60;;;;;;;;;;108013;1266;175784;-36
2023/01/05 02:04:35;;;;;;;5.40;2.60;;;;;;;;;;108084;1262;40117;-35
2023/01/05 02:07:12;;;;;;;5.30;2.90;;;;;;;;;;108066;1270;43662;-36
2023/01/05 02:09:43;;;;;;;5.20;2.50;;;;;;;;;;108121;1262;42461;-36
2023/01/05 02:12:33;;;;;;;6.70;2.60;;;;;;;;;;108152;1258;38867;-36
2023/01/05 02:15:20;;;;;;;5.30;2.50;;;;;;;;;;108120;1270;40356;-36
2023/01/05 02:18:07;;;;;;;6.70;2.50;;;;;;;;;;108063;1262;43648;-36
2023/01/05 02:20:59;;;;;;;5.10;2.30;;;;;;;;;;108110;1269;42347;-36
2023/01/05 02:24:18;;;;;;;4.40;2.20;;;;;;;;;;108125;1268;38927;-36
2023/01/05 02:27:25;;;;;;;4.80;2.30;;;;;;;;;;108088;1262;40469;-36
2023/01/05 02:30:40;;;;;;;4.10;1.90;;;;;;;;;;108127;1258;43455;-36
2023/01/05 02:33:26;;;;;;;5.00;2.30;;;;;;;;;;108027;1268;42400;-36
2023/01/05 02:36:10;;;;;;;4.70;2.10;;;;;;;;;;108122;1259;40147;-38
2023/01/05 02:38:49;;;;;;;4.80;2.00;;;;;;;;;;108147;1264;47873;-36
2023/01/05 02:41:31;;;;;;;4.30;1.80;;;;;;;;;;108112;1263;43556;-36
2023/01/05 02:44:05;;;;;;;5.40;2.10;;;;;;;;;;108131;1262;42323;-36
2023/01/05 02:46:38;;;;;;;5.30;2.30;;;;;;;;;;108081;1257;39078;-36
2023/01/05 02:49:11;;;;;;;4.10;1.70;;;;;;;;;;108113;1258;40456;-36
2023/01/05 02:51:48;;;;;;;;;;;;;;;;;;108112;1270;43369;-36
2023/01/05 02:54:31;;;;;;;5.30;2.00;;;;;;;;;;108144;1270;42231;-36
2023/01/05 02:57:06;;;;;;;4.30;1.80;;;;;;;;;;108058;1257;39005;-36
2023/01/05 02:59:40;;;;;;;4.10;1.70;;;;;;;;;;108135;1273;39993;-36
2023/01/05 03:02:17;;;;;;;4.60;2.00;;;;;;;;;;108116;1263;43338;-37
2023/01/05 03:04:53;;;;;;;3.30;1.40;;;;;;;;;;108154;1262;42292;-36
2023/01/05 03:07:32;;;;;;;5.10;1.80;;;;;;;;;;108107;1262;40346;-36
2023/01/05 03:15:49;;;;;;;4.50;1.90;;;;;;;;;;108129;1270;42515;-36
2023/01/05 03:18:24;;;;;;;3.80;1.70;;;;;;;;;;108088;1262;39072;-36
2023/01/05 03:20:58;;;;;;;4.00;1.80;;;;;;;;;;108101;1273;40217;-36
2023/01/05 03:35:30;;;;;;;4.00;1.60;;;;;;;;;;108016;1268;43678;-36
2023/01/05 03:38:07;;;;;;;3.70;1.50;;;;;;;;;;108143;1263;42941;-36
2023/01/05 03:40:42;;;;;;;3.70;1.50;;;;;;;;;;108129;1262;39190;-36
2023/01/05 03:43:13;;;;;;;3.60;1.40;;;;;;;;;;108096;1262;40617;-36
2023/01/05 03:45:52;;;;;;;4.20;1.80;;;;;;;;;;108145;1262;43480;-36
2023/01/05 03:48:25;;;;;;;4.00;1.70;;;;;;;;;;108036;1259;42559;-36
2023/01/05 03:50:58;;;;;;;3.30;1.40;;;;;;;;;;108022;1268;39033;-37
2023/01/05 03:53:31;;;;;;;3.30;1.40;;;;;;;;;;108026;1266;40507;-36
2023/01/05 03:56:06;;;;;;;3.60;1.50;;;;;;;;;;108003;1271;43687;-38
2023/01/05 03:58:38;;;;;;;3.40;1.30;;;;;;;;;;108005;1262;42483;-37
2023/01/05 04:01:15;;;;;;;3.50;1.40;;;;;;;;;;108114;1262;38977;-36
2023/01/05 04:03:50;;;;;;;3.00;1.30;;;;;;;;;;107962;1272;41695;-37
2023/01/05 04:06:22;;;;;;;3.60;1.30;;;;;;;;;;108143;1262;43455;-36
2023/01/05 04:08:52;;;;;;;3.40;1.20;;;;;;;;;;108090;1262;42299;-36
2023/01/05 04:11:25;;;;;;;3.00;1.20;;;;;;;;;;108023;1271;175850;-36
2023/01/05 04:13:55;;;;;;;3.40;1.20;;;;;;;;;;108150;1267;40227;-39
2023/01/05 04:16:27;;;;;;;3.50;1.30;;;;;;;;;;108151;1262;43135;-37
2023/01/05 04:19:00;;;;;;;2.60;1.00;;;;;;;;;;107457;1265;914455;-36
2023/01/05 04:21:32;;;;;;;2.80;1.20;;;;;;;;;;108139;1261;39091;-36
2023/01/05 04:24:06;;;;;;;2.80;1.10;;;;;;;;;;108146;1258;41636;-37
2023/01/05 04:26:41;;;;;;;;;;;;;;;;;;108141;1262;44688;-36
2023/01/05 04:29:12;;;;;;;3.20;1.10;;;;;;;;;;108118;1271;41971;-36
2023/01/05 04:31:45;;;;;;;3.00;1.20;;;;;;;;;;108113;1270;38921;-36
2023/01/05 04:34:19;;;;;;;3.50;1.20;;;;;;;;;;108170;1259;41744;-36
2023/01/05 04:36:49;;;;;;;3.70;1.00;;;;;;;;;;108154;1273;43137;-36
2023/01/05 04:39:23;;;;;;;1.90;0.90;;;;;;;;;;108066;1262;42244;-37
2023/01/05 04:42:03;;;;;;;2.50;0.90;;;;;;;;;;108143;1257;39046;-36
2023/01/05 04:44:39;;;;;;;2.40;1.00;;;;;;;;;;108124;1257;40419;-36
2023/01/05 04:47:16;;;;;;;1.90;0.90;;;;;;;;;;108125;1269;43346;-36
2023/01/05 04:49:54;;;;;;;2.40;0.90;;;;;;;;;;108102;1262;42869;-36
2023/01/05 04:52:28;;;;;;;2.90;0.90;;;;;;;;;;108141;1261;38919;-36
2023/01/05 04:55:04;;;;;;;2.50;1.00;;;;;;;;;;108131;1261;40470;-36
2023/01/05 04:57:39;;;;;;;2.50;0.90;;;;;;;;;;108117;1262;43458;-37
2023/01/05 05:00:14;;;;;;;2.90;1.00;;;;;;;;;;108072;1270;42297;-36
2023/01/05 05:02:47;;;;;;;3.40;1.20;;;;;;;;;;108141;1267;38902;-36
2023/01/05 05:05:23;;;;;;;2.20;0.90;;;;;;;;;;108146;1270;40312;-36
2023/01/05 05:07:58;;;;;;;2.20;0.80;;;;;;;;;;108160;1261;43291;-36
2023/01/05 05:10:32;;;;;;;1.90;0.80;;;;;;;;;;108107;1262;42433;-36
2023/01/05 05:13:04;;;;;;;2.20;0.80;;;;;;;;;;108127;1271;38880;-36
2023/01/05 05:15:38;;;;;;;1.70;0.80;;;;;;;;;;108144;1259;40439;-36
2023/01/05 05:18:11;;;;;;;2.50;1.00;;;;;;;;;;108147;1262;43885;-36
2023/01/05 05:20:48;;;;;;;3.10;1.10;;;;;;;;;;108051;1262;42534;-36
2023/01/05 05:23:21;;;;;;;3.30;1.30;;;;;;;;;;107893;1262;316855;-36
2023/01/05 05:25:52;;;;;;;2.80;0.80;;;;;;;;;;108127;1261;40523;-36
2023/01/05 05:28:27;;;;;;;1.80;0.60;;;;;;;;;;108145;1261;44880;-37
2023/01/05 05:31:05;;;;;;;3.10;0.90;;;;;;;;;;108043;1262;43737;-36
2023/01/05 05:33:43;;;;;;;2.50;0.80;;;;;;;;;;108148;1257;39770;-36
2023/01/05 05:36:17;;;;;;;2.10;0.70;;;;;;;;;;108129;1273;40064;-38
2023/01/05 05:38:52;;;;;;;2.20;0.70;;;;;;;;;;108159;1262;43416;-36
2023/01/05 05:41:25;;;;;;;2.00;0.80;;;;;;;;;;108173;1262;42096;-36
2023/01/05 05:43:59;;;;;;;1.70;0.60;;;;;;;;;;108138;1271;38993;-36
2023/01/05 05:46:35;;;;;;;3.20;1.00;;;;;;;;;;108151;1263;40477;-36
2023/01/05 05:49:08;;;;;;;2.20;0.90;;;;;;;;;;108105;1267;43454;-36
2023/01/05 05:51:44;;;;;;;2.10;0.80;;;;;;;;;;107969;1261;175760;-36
2023/01/05 05:54:27;;;;;;;2.30;0.80;;;;;;;;;;108122;1271;40203;-37
2023/01/05 05:57:02;;;;;;;1.70;0.70;;;;;;;;;;108151;1269;41601;-36
2023/01/05 05:59:32;;;;;;;2.30;0.80;;;;;;;;;;108138;1262;43502;-38
2023/01/05 06:02:04;;;;;;;2.70;0.80;;;;;;;;;;108024;1262;41924;-36
2023/01/05 06:04:37;;;;;;;1.70;0.70;;;;;;;;;;108139;1268;39092;-36
2023/01/05 06:07:12;;;;;;;2.20;0.80;;;;;;;;;;108151;1262;41589;-37
2023/01/05 06:09:45;;;;;;;2.70;0.70;;;;;;;;;;108124;1258;43647;-36
2023/01/05 06:12:20;;;;;;;3.30;0.90;;;;;;;;;;108141;1267;42410;-36
2023/01/05 06:15:00;;;;;;;2.70;0.80;;;;;;;;;;108138;1269;39074;-37
2023/01/05 06:17:37;;;;;;;2.00;0.70;;;;;;;;;;108149;1272;40460;-36
2023/01/05 06:20:10;;;;;;;2.50;0.70;;;;;;;;;;108142;1261;43351;-36
2023/01/05 06:22:50;;;;;;;3.00;0.80;;;;;;;;;;108121;1262;42407;-36
2023/01/05 06:25:24;;;;;;;2.40;0.70;;;;;;;;;;108159;1257;39132;-37
2023/01/05 06:27:56;;;;;;;2.70;0.60;;;;;;;;;;108144;1261;40484;-36
2023/01/05 06:30:32;;;;;;;2.70;0.80;;;;;;;;;;108128;1271;43364;-36
2023/01/05 06:33:06;;;;;;;1.70;0.60;;;;;;;;;;108119;1262;42414;-37
2023/01/05 06:35:40;;;;;;;2.80;0.70;;;;;;;;;;108154;1272;38920;-36
2023/01/05 06:38:17;;;;;;;2.40;0.90;;;;;;;;;;108066;1262;175743;-36
2023/01/05 06:40:51;;;;;;;3.70;0.80;;;;;;;;;;108154;1261;43489;-37
2023/01/05 06:43:29;;;;;;;1.30;0.60;;;;;;;;;;107967;1262;48103;-36
2023/01/05 06:46:04;;;;;;;2.20;0.70;;;;;;;;;;108039;1270;38979;-36
2023/01/05 06:48:37;;;;;;;2.50;0.90;;;;;;;;;;107916;1259;175726;-37
2023/01/05 06:51:07;;;;;;;2.40;0.80;;;;;;;;;;108054;1262;43025;-37
2023/01/05 06:53:37;;;;;;;1.50;0.50;;;;;;;;;;107971;1262;175778;-37
2023/01/05 06:56:10;;;;;;;1.50;0.70;;;;;;;;;;108150;1262;39092;-38
2023/01/05 06:58:42;;;;;;;1.50;0.60;;;;;;;;;;108154;1269;40691;-37
2023/01/05 07:01:12;;;;;;;2.80;0.90;;;;;;;;;;108148;1262;43428;-36
2023/01/05 07:03:42;;;;;;;2.40;0.70;;;;;;;;;;108114;1261;43532;-37
2023/01/05 07:06:14;;;;;;;1.60;0.60;;;;;;;;;;108145;1262;37913;-38
2023/01/05 07:08:46;;;;;;;1.40;0.60;;;;;;;;;;108131;1263;41829;-36
2023/01/05 07:11:16;;;;;;;2.30;0.80;;;;;;;;;;108166;1260;43107;-36
2023/01/05 07:13:49;;;;;;;2.40;0.70;;;;;;;;;;108249;1262;42155;-36
2023/01/05 07:16:20;;;;;;;2.60;0.80;;;;;;;;;;108129;1262;38715;-36
2023/01/05 07:18:53;;;;;;;2.00;0.80;;;;;;;;;;108138;1259;40572;-37
2023/01/05 07:21:23;;;;;;;;;;;;;;;;;;108036;1261;196811;-37
2023/01/05 07:23:56;;;;;;;2.70;0.80;;;;;;;;;;108081;1261;41495;-36
2023/01/05 07:26:26;;;;;;;2.30;0.70;;;;;;;;;;108143;1262;38869;-36
2023/01/05 07:29:00;;;;;;;3.50;0.90;;;;;;;;;;108138;1268;40607;-36
2023/01/05 07:31:32;;;;;;;4.80;1.40;;;;;;;;;;108198;1272;43515;-36
2023/01/05 07:34:03;;;;;;;2.60;0.70;;;;;;;;;;108138;1261;42304;-36
2023/01/05 07:36:36;;;;;;;3.10;0.60;;;;;;;;;;108053;1271;175717;-36
2023/01/05 07:39:06;;;;;;;1.70;0.60;;;;;;;;;;108162;1267;40375;-36
2023/01/05 07:41:38;;;;;;;2.50;0.80;;;;;;;;;;107999;1266;175707;-36
2023/01/05 07:44:09;;;;;;;3.20;0.70;;;;;;;;;;108115;1261;42307;-36
2023/01/05 07:46:49;;;;;;;3.20;0.90;;;;;;;;;;108123;1262;38883;-36
2023/01/05 07:49:22;;;;;;;3.00;0.80;;;;;;;;;;108169;1262;40298;-36
2023/01/05 07:51:52;;;;;;;3.10;0.70;;;;;;;;;;108027;1269;175715;-36
2023/01/05 07:54:23;;;;;;;2.60;0.80;;;;;;;;;;108138;1262;43154;-36
2023/01/05 07:56:58;;;;;;;3.30;0.90;;;;;;;;;;108178;1262;38887;-36
2023/01/05 07:59:36;;;;;;;1.90;0.60;;;;;;;;;;108150;1272;40376;-36
2023/01/05 08:02:10;;;;;;;3.00;0.90;;;;;;;;;;108144;1269;43470;-36
2023/01/05 08:04:45;;;;;;;1.90;0.60;;;;;;;;;;108121;1262;42360;-36
2023/01/05 08:07:16;;;;;;;2.30;0.60;;;;;;;;;;108487;1250;38940;-43
2023/01/05 08:13:58;;;;;;;2.30;0.80;;;;;;;;;;108306;1267;43561;-39
2023/01/05 08:15:26;;;;;;;3.90;0.70;;;;;;;;;;108209;1261;48174;-43
2023/01/05 08:17:56;;;;;;;2.80;0.80;;;;;;;;;;108343;1267;38159;-38
2023/01/05 08:20:31;;;;;;;3.00;0.80;;;;;;;;;;108341;1259;40515;-36
2023/01/05 08:23:03;;;;;;;3.70;0.90;;;;;;;;;;108391;1259;43462;-37
2023/01/05 08:25:36;;;;;;;2.40;0.80;;;;;;;;;;108316;1259;42438;-38
2023/01/05 08:28:11;;;;;;;2.90;1.00;;;;;;;;;;108360;1259;38620;-37
2023/01/05 08:30:43;;;;;;;3.50;0.80;;;;;;;;;;108364;1259;40273;-39
2023/01/05 08:33:14;;;;;;;3.40;0.90;;;;;;;;;;108324;1259;43667;-40
2023/01/05 08:35:46;;;;;;;3.10;0.80;;;;;;;;;;108250;1256;42318;-39
2023/01/05 08:38:16;;;;;;;2.80;0.70;;;;;;;;;;108307;1256;39012;-39
2023/01/05 08:40:46;;;;;;;2.00;0.80;;;;;;;;;;108321;1261;39666;-38
2023/01/05 08:43:16;;;;;;;1.80;0.90;;;;;;;;;;108283;1268;43035;-40
2023/01/05 08:45:50;;;;;;;1.90;0.70;;;;;;;;;;108307;1255;42456;-39
2023/01/05 08:48:21;;;;;;;3.90;1.00;;;;;;;;;;108351;1259;38982;-40
2023/01/05 08:50:53;;;;;;;2.40;0.90;;;;;;;;;;108381;1259;40314;-40
2023/01/05 08:53:24;;;;;;;2.80;0.70;;;;;;;;;;108282;1256;43529;-39
2023/01/05 08:55:54;;;;;;;2.80;0.80;;;;;;;;;;108259;1257;43960;-41
2023/01/05 08:58:25;;;;;;;2.50;0.90;;;;;;;;;;108306;1268;38056;-39
2023/01/05 09:00:55;;;;;;;2.90;0.80;;;;;;;;;;107654;1267;893485;-40
2023/01/05 09:03:25;;;;;;;2.40;1.00;;;;;;;;;;108193;1260;44790;-39
2023/01/05 09:06:01;;;;;;;3.20;1.00;;;;;;;;;;108265;1259;41978;-37
2023/01/05 09:08:33;;;;;;;2.90;1.10;;;;;;;;;;108395;1267;38989;-38
2023/01/05 09:11:12;;;;;;;2.80;1.10;;;;;;;;;;108367;1256;40398;-38
2023/01/05 09:13:47;;;;;;;3.40;1.00;;;;;;;;;;108415;1259;44672;-37
2023/01/05 09:16:19;;;;;;;3.10;0.90;;;;;;;;;;108342;1260;42270;-37
2023/01/05 09:19:13;;;;;;;3.20;0.90;;;;;;;;;;108274;1267;38873;-38
2023/01/05 09:21:45;;;;;;;2.60;0.90;;;;;;;;;;108310;1271;40566;-38
2023/01/05 09:24:16;;;;;;;2.80;1.00;;;;;;;;;;108271;1268;43418;-39
2023/01/05 09:26:46;;;;;;;2.80;0.90;;;;;;;;;;108322;1257;42653;-39
2023/01/05 09:29:16;;;;;;;3.30;1.00;;;;;;;;;;108336;1259;38899;-40
2023/01/05 09:31:46;;;;;;;2.60;0.80;;;;;;;;;;108348;1269;40473;-37
2023/01/05 09:34:17;;;;;;;4.20;1.10;;;;;;;;;;108380;1258;43661;-40
2023/01/05 09:36:48;;;;;;;3.20;0.90;;;;;;;;;;108241;1259;42259;-38
2023/01/05 09:39:18;;;;;;;2.60;0.90;;;;;;;;;;108255;1256;39042;-41
2023/01/05 09:41:53;;;;;;;2.80;0.80;;;;;;;;;;108240;1272;39961;-41
2023/01/05 09:44:32;;;;;;;2.30;0.80;;;;;;;;;;108374;1257;43407;-42
2023/01/05 09:47:12;;;;;;;2.70;0.80;;;;;;;;;;108221;1261;42228;-38
2023/01/05 09:49:42;;;;;;;2.80;0.90;;;;;;;;;;108280;1258;39078;-38
2023/01/05 09:52:13;;;;;;;3.30;0.90;;;;;;;;;;108209;1270;40504;-38
2023/01/05 09:54:44;;;;;;;3.30;1.00;;;;;;;;;;108230;1272;43532;-38
2023/01/05 09:57:20;;;;;;;2.40;0.80;;;;;;;;;;108251;1259;42582;-37
2023/01/05 09:59:54;;;;;;;3.60;1.40;;;;;;;;;;108458;1259;39202;-41
2023/01/05 10:02:34;;;;;;;3.40;0.90;;;;;;;;;;108324;1271;40274;-40
2023/01/05 10:05:08;;;;;;;2.80;0.90;;;;;;;;;;108302;1267;44938;-41
2023/01/05 10:07:49;;;;;;;3.80;0.80;;;;;;;;;;108365;1260;43498;-42
2023/01/05 10:10:44;;;;;;;3.40;1.10;;;;;;;;;;108258;1257;39142;-42
2023/01/05 10:13:27;;;;;;;3.20;1.00;;;;;;;;;;108285;1257;40420;-40
2023/01/05 10:15:59;;;;;;;;;;;;;;;;;;108200;1257;43296;-36
2023/01/05 10:18:33;;;;;;;2.70;0.80;;;;;;;;;;108202;1266;43104;-40
2023/01/05 10:21:15;;;;;;;3.20;1.10;;;;;;;;;;108085;1257;40084;-39
2023/01/05 10:24:08;;;;;;;3.20;1.00;;;;;;;;;;107995;1270;41140;-39
2023/01/05 10:26:46;;;;;;;4.00;1.20;;;;;;;;;;108215;1260;46133;-44
2023/01/05 10:29:44;;;;;;;3.00;1.40;;;;;;;;;;108296;1259;42516;-43
2023/01/05 10:32:25;;;;;;;4.00;1.10;;;;;;;;;;108290;1259;39052;-38
2023/01/05 10:35:01;;;;;;;4.10;1.10;;;;;;;;;;108312;1256;40632;-42
2023/01/05 10:38:08;;;;;;;3.80;1.00;;;;;;;;;;108252;1258;43161;-44
2023/01/05 10:40:54;;;;;;;2.70;0.90;;;;;;;;;;108218;1258;42375;-44
2023/01/05 10:43:51;;;;;;;3.10;1.00;;;;;;;;;;108200;1268;39020;-43
2023/01/05 10:46:21;;;;;;;3.30;1.00;;;;;;;;;;108203;1257;40281;-43
2023/01/05 10:49:12;;;;;;;4.10;0.90;;;;;;;;;;108301;1259;43380;-44
2023/01/05 10:51:44;;;;;;;4.30;1.20;;;;;;;;;;108285;1260;42457;-46
2023/01/05 10:54:32;;;;;;;3.40;1.10;;;;;;;;;;108305;1259;39009;-42
2023/01/05 10:57:38;;;;;;;4.00;1.00;;;;;;;;;;108240;1260;40203;-41
2023/01/05 11:00:15;;;;;;;4.70;1.20;;;;;;;;;;108181;1260;43544;-45
2023/01/05 11:02:52;;;;;;;3.70;1.20;;;;;;;;;;108204;1266;44746;-43
2023/01/05 11:05:35;;;;;;;3.90;1.20;;;;;;;;;;108188;1268;39271;-43
2023/01/05 11:08:15;;;;;;;2.80;0.90;;;;;;;;;;108218;1259;40493;-44
2023/01/05 11:10:53;;;;;;;4.30;1.40;;;;;;;;;;108295;1259;43396;-43
2023/01/05 11:13:35;;;;;;;2.60;1.00;;;;;;;;;;108300;1259;42707;-43
2023/01/05 11:16:11;;;;;;;3.60;1.40;;;;;;;;;;108299;1259;38927;-45
2023/01/05 11:18:49;;;;;;;4.70;1.10;;;;;;;;;;108103;1261;40271;-45
2023/01/05 11:21:21;;;;;;;3.10;1.10;;;;;;;;;;108207;1266;44513;-40
2023/01/05 11:23:56;;;;;;;3.50;1.20;;;;;;;;;;108204;1260;42516;-40
2023/01/05 11:26:30;;;;;;;2.90;1.30;;;;;;;;;;108258;1260;39156;-46
2023/01/05 11:29:12;;;;;;;4.70;1.50;;;;;;;;;;108311;1259;40509;-42
2023/01/05 11:31:51;;;;;;;3.40;1.20;;;;;;;;;;108307;1267;43594;-38
2023/01/05 11:34:40;;;;;;;2.90;1.10;;;;;;;;;;108302;1273;42413;-38
2023/01/05 11:37:24;;;;;;;4.40;1.30;;;;;;;;;;108381;1257;39099;-40
2023/01/05 11:39:56;;;;;;;4.30;1.40;;;;;;;;;;108119;1262;46280;-43
2023/01/05 11:42:35;;;;;;;3.40;1.40;;;;;;;;;;108193;1260;43636;-40
2023/01/05 11:45:16;;;;;;;3.80;1.40;;;;;;;;;;108092;1268;42532;-40
2023/01/05 11:47:49;;;;;;;3.70;1.50;;;;;;;;;;108080;1258;39287;-42
2023/01/05 11:50:23;;;;;;;3.50;1.20;;;;;;;;;;108004;1261;40701;-41
2023/01/05 11:52:55;;;;;;;3.40;1.40;;;;;;;;;;108153;1260;43604;-47
2023/01/05 11:55:32;;;;;;;3.50;1.30;;;;;;;;;;108079;1262;42429;-47
2023/01/05 11:58:28;;;;;;;3.70;1.50;;;;;;;;;;108032;1258;39173;-47
2023/01/05 12:02:05;;;;;;;3.10;1.30;;;;;;;;;;108070;1259;40607;-44
2023/01/05 12:05:02;;;;;;;3.10;1.50;;;;;;;;;;107947;1262;43669;-46
2023/01/05 12:07:34;;;;;;;4.00;1.30;;;;;;;;;;108136;1270;42537;-41
2023/01/05 12:10:45;;;;;;;3.30;1.20;;;;;;;;;;108018;1260;38743;-44
2023/01/05 12:13:39;;;;;;;2.60;1.10;;;;;;;;;;108072;1262;40406;-46
2023/01/05 12:16:29;;;;;;;4.20;1.10;;;;;;;;;;108024;1264;43123;-43
2023/01/05 12:19:33;;;;;;;2.40;1.00;;;;;;;;;;108019;1269;42305;-40
2023/01/05 12:22:34;;;;;;;2.90;1.00;;;;;;;;;;108184;1265;39107;-39
2023/01/05 12:25:26;;;;;;;3.30;1.20;;;;;;;;;;108089;1270;41650;-40
2023/01/05 12:28:30;;;;;;;3.30;1.20;;;;;;;;;;108076;1262;43646;-41
2023/01/05 12:31:32;;;;;;;3.30;1.10;;;;;;;;;;107951;1263;48470;-38
2023/01/05 12:34:58;;;;;;;3.40;1.00;;;;;;;;;;108017;1262;39123;-43
2023/01/05 12:37:39;;;;;;;2.40;0.90;;;;;;;;;;108024;1270;41689;-40
2023/01/05 12:40:31;;;;;;;3.20;0.90;;;;;;;;;;108048;1260;43570;-38
2023/01/05 12:43:06;;;;;;;2.90;1.10;;;;;;;;;;108144;1259;42467;-41
2023/01/05 12:46:03;;;;;;;3.50;1.20;;;;;;;;;;108171;1269;39246;-36
2023/01/05 12:48:38;;;;;;;2.80;0.90;;;;;;;;;;108168;1270;41962;-39
2023/01/05 12:51:18;;;;;;;2.70;0.90;;;;;;;;;;108053;1260;43727;-37
2023/01/05 12:53:57;;;;;;;2.80;0.90;;;;;;;;;;108075;1264;42191;-43
2023/01/05 12:56:35;;;;;;;3.70;1.10;;;;;;;;;;107998;1264;38900;-42
2023/01/05 12:59:16;;;;;;;3.70;1.00;;;;;;;;;;108026;1263;40624;-40
2023/01/05 13:01:55;;;;;;;3.40;1.10;;;;;;;;;;108123;1262;43488;-40
2023/01/05 13:04:39;;;;;;;2.60;1.00;;;;;;;;;;108139;1257;43526;-41
2023/01/05 13:07:24;;;;;;;3.10;1.20;;;;;;;;;;108059;1270;39029;-44
2023/01/05 13:10:03;;;;;;;2.60;0.80;;;;;;;;;;107900;1259;175667;-46
2023/01/05 13:12:37;;;;;;;2.00;0.80;;;;;;;;;;108013;1263;43455;-42
2023/01/05 13:15:20;;;;;;;3.10;1.00;;;;;;;;;;108032;1260;42392;-41
2023/01/05 13:17:56;;;;;;;3.80;0.90;;;;;;;;;;108060;1262;38908;-43
2023/01/05 13:20:37;;;;;;;3.60;1.20;;;;;;;;;;108068;1260;40349;-43
2023/01/05 13:23:16;;;;;;;2.90;0.90;;;;;;;;;;108188;1256;43380;-43
2023/01/05 13:25:55;;;;;;;2.20;0.80;;;;;;;;;;108005;1257;42419;-40
2023/01/05 13:28:28;;;;;;;2.80;0.90;;;;;;;;;;108192;1261;39008;-43
2023/01/05 13:32:02;;;;;;;2.40;0.80;;;;;;;;;;108078;1261;40474;-42
2023/01/05 13:35:13;;;;;;;2.80;0.80;;;;;;;;;;108047;1261;43531;-42
2023/01/05 13:38:32;;;;;;;2.80;1.00;;;;;;;;;;107948;1261;42400;-42
2023/01/05 13:41:22;;;;;;;2.90;0.90;;;;;;;;;;107819;1260;39128;-37
2023/01/05 13:44:24;;;;;;;3.00;0.80;;;;;;;;;;108165;1260;40072;-34
2023/01/05 13:47:14;;;;;;;3.80;0.90;;;;;;;;;;108057;1257;43549;-35
2023/01/05 13:50:24;;;;;;;2.70;1.00;;;;;;;;;;108023;1262;42333;-38
2023/01/05 13:53:06;;;;;;;3.80;1.00;;;;;;;;;;108043;1261;44547;-35
2023/01/05 13:55:44;;;;;;;2.50;0.70;;;;;;;;;;108038;1256;40423;-36
2023/01/05 13:58:36;;;;;;;3.00;0.80;;;;;;;;;;108146;1260;44654;-42
2023/01/05 14:01:17;;;;;;;3.60;0.90;;;;;;;;;;108098;1257;42239;-42
2023/01/05 14:03:54;;;;;;;2.30;0.70;;;;;;;;;;108027;1269;39010;-38
2023/01/05 14:06:37;;;;;;;2.40;0.80;;;;;;;;;;108049;1258;40310;-39
2023/01/05 14:09:16;;;;;;;4.20;1.10;;;;;;;;;;108012;1270;43400;-41
2023/01/05 14:12:24;;;;;;;2.90;1.00;;;;;;;;;;107974;1261;42136;-41
2023/01/05 14:15:04;;;;;;;2.60;0.80;;;;;;;;;;108143;1269;39014;-38
2023/01/05 14:17:52;;;;;;;3.60;1.00;;;;;;;;;;108091;1270;40708;-41
2023/01/05 14:20:40;;;;;;;2.80;0.90;;;;;;;;;;108151;1265;43421;-42
2023/01/05 14:23:54;;;;;;;3.30;1.10;;;;;;;;;;107997;1261;42435;-42
2023/01/05 14:27:02;;;;;;;2.70;0.90;;;;;;;;;;108028;1261;38750;-42
2023/01/05 14:30:26;;;;;;;3.20;1.10;;;;;;;;;;108074;1263;40313;-38
2023/01/05 14:33:04;;;;;;;2.90;1.00;;;;;;;;;;108087;1257;43639;-38
2023/01/05 14:35:35;;;;;;;3.00;0.90;;;;;;;;;;107975;1264;42341;-39
2023/01/05 14:38:21;;;;;;;2.30;0.90;;;;;;;;;;108054;1268;40782;-43
2023/01/05 14:40:55;;;;;;;3.40;1.20;;;;;;;;;;108145;1268;40464;-44
2023/01/05 14:43:31;;;;;;;3.50;1.00;;;;;;;;;;108010;1258;44715;-40
2023/01/05 14:46:08;;;;;;;3.00;0.90;;;;;;;;;;108042;1260;42599;-40
2023/01/05 14:48:41;;;;;;;3.30;0.90;;;;;;;;;;108150;1258;39218;-38
2023/01/05 14:51:23;;;;;;;2.70;0.90;;;;;;;;;;107994;1271;40478;-37
2023/01/05 14:53:57;;;;;;;3.00;1.10;;;;;;;;;;108092;1261;44711;-40
2023/01/05 14:56:32;;;;;;;4.90;1.40;;;;;;;;;;108064;1256;42645;-38
2023/01/05 14:59:18;;;;;;;4.10;2.00;;;;;;;;;;108151;1260;38993;-40
2023/01/05 15:01:52;;;;;;;4.00;1.40;;;;;;;;;;108122;1261;40377;-39
2023/01/05 15:04:28;;;;;;;3.80;1.50;;;;;;;;;;108086;1260;49149;-39
2023/01/05 15:07:20;;;;;;;3.10;1.30;;;;;;;;;;108063;1269;42968;-38
2023/01/05 15:10:10;;;;;;;4.50;1.70;;;;;;;;;;108052;1272;40349;-37
2023/01/05 15:13:14;;;;;;;5.40;1.70;;;;;;;;;;108125;1257;40190;-41
2023/01/05 15:15:53;;;;;;;2.50;1.00;;;;;;;;;;108008;1272;43466;-39
2023/01/05 15:19:00;;;;;;;3.50;1.10;;;;;;;;;;108112;1260;42256;-39
2023/01/05 15:22:02;;;;;;;3.40;1.30;;;;;;;;;;108047;1264;38721;-38
2023/01/05 15:25:13;;;;;;;3.90;1.20;;;;;;;;;;108080;1262;45841;-37
2023/01/05 15:28:31;;;;;;;4.30;1.30;;;;;;;;;;108088;1270;43544;-38
2023/01/05 15:31:26;;;;;;;3.10;1.10;;;;;;;;;;107966;1272;42293;-39
2023/01/05 15:34:14;;;;;;;3.30;1.40;;;;;;;;;;108042;1260;39020;-38
2023/01/05 15:36:53;;;;;;;3.60;1.30;;;;;;;;;;108056;1257;40540;-37
2023/01/05 15:39:30;;;;;;;3.70;1.40;;;;;;;;;;108046;1261;43428;-37
2023/01/05 15:42:07;;;;;;;4.30;1.20;;;;;;;;;;108035;1269;42405;-39
2023/01/05 15:44:45;;;;;;;3.60;1.30;;;;;;;;;;108059;1256;39034;-37
2023/01/05 15:47:19;;;;;;;4.80;1.50;;;;;;;;;;108127;1270;40436;-39
2023/01/05 15:49:56;;;;;;;3.70;1.30;;;;;;;;;;108085;1262;43479;-40
2023/01/05 15:52:34;;;;;;;3.80;1.40;;;;;;;;;;108108;1271;42215;-39
2023/01/05 15:55:16;;;;;;;4.50;1.30;;;;;;;;;;107991;1261;39189;-39
2023/01/05 15:57:54;;;;;;;4.50;1.50;;;;;;;;;;108011;1271;40329;-39
2023/01/05 16:00:29;;;;;;;3.80;1.40;;;;;;;;;;108022;1262;43557;-39
2023/01/05 16:02:59;;;;;;;4.50;1.10;;;;;;;;;;108006;1261;42293;-39
2023/01/05 16:05:32;;;;;;;4.10;1.40;;;;;;;;;;108029;1263;37930;-38
2023/01/05 16:08:16;;;;;;;4.40;1.30;;;;;;;;;;108111;1270;40537;-40
2023/01/05 16:10:52;;;;;;;3.90;1.40;;;;;;;;;;108118;1256;43152;-39